Time;durP1;ratioP1;P1;durP2;ratioP2;P2;SDS_P1;SDS_P2;PMS_P1;PMS_P2;Temp;Humidity;BMP_temperature;BMP_pressure;BME280_temperature;BME280_humidity;BME280_pressure;Samples;Min_cycle;Max_cycle;Signal;HPM_P1;HPM_P2
2023/05/29 00:00:29;;;;;;;7.13;4.72;;;;;;;12.30;52.80;98666.72;5050469;28;20032;-66
2023/05/29 00:02:55;;;;;;;7.75;4.15;;;;;;;12.28;52.80;98666.19;5051296;28;20021;-67
2023/05/29 00:05:20;;;;;;;9.45;4.45;;;;;;;12.24;52.65;98665.97;5050955;28;20060;-67
2023/05/29 00:07:46;;;;;;;11.02;5.90;;;;;;;12.23;52.50;98663.53;5050962;28;20112;-67
2023/05/29 00:10:11;;;;;;;11.25;5.60;;;;;;;12.19;52.59;98655.88;5050502;28;20029;-66
2023/05/29 00:12:38;;;;;;;10.23;5.85;;;;;;;12.16;53.29;98650.97;5050371;28;20469;-67
2023/05/29 00:15:04;;;;;;;9.25;5.55;;;;;;;12.14;53.06;98655.97;5050448;28;20461;-66
2023/05/29 00:17:33;;;;;;;8.10;4.97;;;;;;;12.10;52.95;98656.88;5049027;28;20021;-67
2023/05/29 00:20:00;;;;;;;10.02;6.25;;;;;;;12.03;52.62;98651.75;5050336;28;20169;-67
2023/05/29 00:22:27;;;;;;;8.20;5.45;;;;;;;11.99;52.92;98650.72;5050592;28;20115;-66
2023/05/29 00:24:52;;;;;;;7.35;4.50;;;;;;;11.95;53.38;98652.44;5050689;28;20444;-67
2023/05/29 00:27:18;;;;;;;6.72;4.13;;;;;;;11.95;53.62;98646.94;5050749;28;20025;-67
2023/05/29 00:29:43;;;;;;;8.20;4.07;;;;;;;11.93;53.31;98644.47;5050036;28;20100;-67
2023/05/29 00:32:09;;;;;;;6.50;4.13;;;;;;;11.88;52.87;98653.63;5055300;28;20027;-67
2023/05/29 00:34:35;;;;;;;6.40;4.07;;;;;;;11.85;53.72;98653.41;5050426;28;20033;-67
2023/05/29 00:37:01;;;;;;;5.18;3.47;;;;;;;11.81;53.07;98650.44;5050646;28;20047;-67
2023/05/29 00:39:27;;;;;;;7.10;3.85;;;;;;;11.78;53.41;98651.03;5050329;28;20458;-67
2023/05/29 00:41:52;;;;;;;6.35;3.45;;;;;;;11.76;53.68;98650.53;5052570;28;20017;-67
2023/05/29 00:44:18;;;;;;;7.18;3.75;;;;;;;11.71;53.28;98653.34;5054586;28;20111;-67
2023/05/29 00:46:45;;;;;;;7.28;3.42;;;;;;;11.67;53.66;98655.06;5054478;28;20033;-67
2023/05/29 00:49:11;;;;;;;6.85;3.80;;;;;;;11.64;53.75;98656.50;5050400;28;20060;-68
2023/05/29 00:51:37;;;;;;;5.63;3.58;;;;;;;11.60;54.21;98656.28;5054409;28;20029;-67
2023/05/29 00:54:06;;;;;;;5.97;3.60;;;;;;;11.58;53.74;98647.53;5054332;28;20363;-67
2023/05/29 00:56:32;;;;;;;6.10;3.13;;;;;;;11.55;53.52;98648.13;5054561;28;20025;-68
2023/05/29 00:58:57;;;;;;;5.70;3.00;;;;;;;11.53;54.33;98657.75;5054066;28;20112;-68
2023/05/29 01:01:24;;;;;;;6.57;3.40;;;;;;;11.50;53.86;98650.09;5053193;28;20100;-68
2023/05/29 01:03:49;;;;;;;8.52;3.70;;;;;;;11.47;53.96;98652.31;5052252;28;20033;-68
2023/05/29 01:06:15;;;;;;;7.65;3.55;;;;;;;11.42;54.32;98649.66;5054142;28;20035;-67
2023/05/29 01:08:40;;;;;;;6.22;3.38;;;;;;;11.40;54.25;98646.41;5054487;28;20021;-67
2023/05/29 01:11:23;;;;;;;6.03;3.00;;;;;;;11.38;54.54;98647.81;5053660;28;20411;-68
2023/05/29 01:13:49;;;;;;;6.65;3.03;;;;;;;11.36;54.70;98644.53;5054325;28;20044;-68
2023/05/29 01:16:44;;;;;;;5.68;3.42;;;;;;;11.32;54.92;98647.88;5053988;28;20029;-67
2023/05/29 01:19:34;;;;;;;5.57;3.42;;;;;;;11.31;54.50;98646.25;5053696;28;20059;-67
2023/05/29 01:22:10;;;;;;;;;;;;;;;11.32;54.85;98655.31;5054514;28;20511;-68
2023/05/29 01:24:50;;;;;;;5.32;3.22;;;;;;;11.26;54.20;98654.56;5054260;28;19935;-67
2023/05/29 01:27:18;;;;;;;5.70;3.20;;;;;;;11.25;55.05;98643.88;5054114;28;20997;-68
2023/05/29 01:29:46;;;;;;;5.50;3.00;;;;;;;11.25;54.71;98652.13;5052816;28;20492;-68
2023/05/29 01:32:11;;;;;;;10.07;3.70;;;;;;;11.22;54.48;98652.69;5053749;28;20051;-68
2023/05/29 01:34:37;;;;;;;7.20;3.78;;;;;;;11.18;54.65;98652.50;5053589;28;20029;-68
2023/05/29 01:37:02;;;;;;;6.38;3.97;;;;;;;11.14;54.59;98646.75;5054130;28;20037;-67
2023/05/29 01:39:29;;;;;;;8.15;4.78;;;;;;;11.11;54.85;98638.31;5053110;28;20431;-68
2023/05/29 01:41:55;;;;;;;8.85;4.32;;;;;;;11.07;55.20;98642.75;5053862;28;20021;-67
2023/05/29 01:44:23;;;;;;;10.13;5.50;;;;;;;11.04;55.34;98635.91;5053503;28;20661;-67
2023/05/29 01:46:49;;;;;;;9.30;5.07;;;;;;;11.04;54.74;98640.59;5053765;28;20036;-68
2023/05/29 01:49:16;;;;;;;8.20;4.45;;;;;;;11.01;55.19;98637.31;5053454;28;20374;-67
2023/05/29 01:51:42;;;;;;;6.53;4.20;;;;;;;11.00;55.76;98638.44;5053211;28;20056;-68
2023/05/29 01:54:08;;;;;;;7.65;3.83;;;;;;;10.98;55.43;98645.34;5053165;28;20095;-67
2023/05/29 01:56:34;;;;;;;8.50;6.07;;;;;;;10.95;55.43;98644.00;5053183;28;20029;-67
2023/05/29 01:59:02;;;;;;;10.25;7.50;;;;;;;10.97;55.77;98635.47;5053427;28;20457;-68
2023/05/29 02:01:28;;;;;;;8.93;6.95;;;;;;;10.96;56.51;98644.81;5051779;28;20028;-67
2023/05/29 02:03:53;;;;;;;7.50;5.00;;;;;;;10.94;55.98;98636.88;5053226;28;20035;-67
2023/05/29 02:06:19;;;;;;;6.10;4.10;;;;;;;10.91;56.27;98637.44;5051755;28;20028;-67
2023/05/29 02:08:45;;;;;;;9.02;4.40;;;;;;;10.89;56.10;98636.13;5052866;28;20079;-68
2023/05/29 02:11:11;;;;;;;7.07;3.67;;;;;;;10.87;56.24;98637.25;5048634;28;20049;-68
2023/05/29 02:13:37;;;;;;;7.80;3.83;;;;;;;10.86;56.06;98637.50;5034270;28;20112;-68
2023/05/29 02:16:02;;;;;;;5.78;3.88;;;;;;;10.83;56.50;98630.69;5034372;28;20029;-66
2023/05/29 02:18:27;;;;;;;8.80;3.95;;;;;;;10.83;56.41;98641.69;5034334;28;20493;-67
2023/05/29 02:20:53;;;;;;;7.30;3.80;;;;;;;10.81;56.56;98632.91;5037745;28;20112;-68
2023/05/29 02:23:19;;;;;;;6.60;4.30;;;;;;;10.80;56.93;98635.97;5037384;28;20029;-68
2023/05/29 02:25:45;;;;;;;7.85;4.93;;;;;;;10.79;56.08;98637.09;5034174;28;20369;-68
2023/05/29 02:28:10;;;;;;;7.57;4.30;;;;;;;10.80;56.51;98635.97;5048820;28;20029;-68
2023/05/29 02:30:36;;;;;;;8.85;4.20;;;;;;;10.78;56.06;98633.50;5049464;28;20025;-68
2023/05/29 02:33:01;;;;;;;9.88;4.40;;;;;;;10.80;56.82;98638.72;5054001;28;20032;-68
2023/05/29 02:35:27;;;;;;;7.72;4.03;;;;;;;10.79;56.95;98634.34;5051032;28;20500;-67
2023/05/29 02:37:53;;;;;;;7.57;3.92;;;;;;;10.80;56.40;98635.97;5053981;28;20032;-68
2023/05/29 02:40:19;;;;;;;9.30;4.53;;;;;;;10.78;56.46;98627.22;5053633;28;20120;-67
2023/05/29 02:42:45;;;;;;;7.00;4.13;;;;;;;10.76;56.90;98630.22;5050686;28;20032;-67
2023/05/29 02:45:10;;;;;;;7.78;4.00;;;;;;;10.75;56.52;98619.56;5053720;28;20025;-68
2023/05/29 02:47:36;;;;;;;9.32;4.30;;;;;;;10.74;57.02;98628.91;5052889;28;20385;-68
2023/05/29 02:50:02;;;;;;;12.10;4.55;;;;;;;10.74;57.00;98617.94;5051117;28;20047;-67
2023/05/29 02:52:28;;;;;;;13.00;6.88;;;;;;;10.74;56.53;98620.69;5052844;28;20024;-67
2023/05/29 02:54:54;;;;;;;15.52;7.43;;;;;;;10.75;57.13;98619.56;5073440;28;20028;-67
2023/05/29 02:57:20;;;;;;;13.65;6.47;;;;;;;10.76;57.28;98615.72;5054895;28;20043;-67
2023/05/29 02:59:46;;;;;;;13.68;5.90;;;;;;;10.76;57.30;98615.72;5044650;28;20029;-68
2023/05/29 03:02:12;;;;;;;12.40;5.28;;;;;;;10.76;57.23;98621.19;5033498;28;20017;-69
2023/05/29 03:04:37;;;;;;;9.48;4.35;;;;;;;10.75;57.01;98614.88;5033154;28;20079;-69
2023/05/29 03:07:03;;;;;;;10.82;4.68;;;;;;;10.76;57.27;98616.53;5039327;28;20064;-69
2023/05/29 03:09:28;;;;;;;7.38;4.32;;;;;;;10.77;57.04;98614.59;5032071;28;20386;-69
2023/05/29 03:11:53;;;;;;;9.63;4.93;;;;;;;10.78;57.83;98616.25;5034335;28;20532;-69
2023/05/29 03:14:21;;;;;;;9.85;4.60;;;;;;;10.79;56.68;98618.69;5046187;28;20116;-69
2023/05/29 03:16:46;;;;;;;10.35;4.70;;;;;;;10.79;57.46;98609.66;5051668;28;20029;-69
2023/05/29 03:19:12;;;;;;;7.85;4.53;;;;;;;10.80;57.25;98620.31;5046679;28;20031;-69
2023/05/29 03:21:37;;;;;;;7.22;4.78;;;;;;;10.82;57.35;98620.84;5073102;28;20021;-69
2023/05/29 03:24:03;;;;;;;10.32;5.03;;;;;;;10.84;58.04;98615.88;5061334;28;20052;-69
2023/05/29 03:26:28;;;;;;;9.95;4.70;;;;;;;10.85;57.25;98614.75;5053254;28;20036;-69
2023/05/29 03:28:54;;;;;;;12.23;5.75;;;;;;;10.87;57.47;98619.94;5052888;28;20040;-69
2023/05/29 03:31:19;;;;;;;12.02;6.63;;;;;;;10.88;58.20;98624.31;5052880;28;20516;-68
2023/05/29 03:33:45;;;;;;;10.90;5.38;;;;;;;10.91;57.75;98623.72;5052813;28;20040;-69
2023/05/29 03:36:11;;;;;;;13.43;6.20;;;;;;;10.94;57.40;98619.59;5048474;28;20405;-69
2023/05/29 03:38:36;;;;;;;11.20;6.18;;;;;;;10.97;57.61;98621.75;5070690;28;20119;-69
2023/05/29 03:41:02;;;;;;;12.50;6.03;;;;;;;11.00;57.75;98621.16;5051811;28;20116;-69
2023/05/29 03:43:27;;;;;;;9.73;5.80;;;;;;;11.01;57.46;98629.09;5050053;28;20033;-69
2023/05/29 03:45:53;;;;;;;13.13;5.88;;;;;;;11.02;57.80;98630.72;5044148;28;20029;-69
2023/05/29 03:48:18;;;;;;;12.45;5.22;;;;;;;11.04;58.20;98624.13;5041141;28;20037;-70
2023/05/29 03:50:45;;;;;;;16.02;5.90;;;;;;;11.05;57.60;98632.06;5041549;28;20033;-69
2023/05/29 03:53:11;;;;;;;11.05;5.75;;;;;;;11.06;57.64;98628.19;5035311;28;20029;-69
2023/05/29 03:55:36;;;;;;;10.57;5.07;;;;;;;11.08;57.62;98630.66;5051790;28;20418;-69
2023/05/29 03:58:01;;;;;;;13.60;5.43;;;;;;;11.10;58.20;98623.75;5047020;28;20025;-69
2023/05/29 04:00:27;;;;;;;11.40;5.00;;;;;;;11.14;58.30;98633.03;5032407;28;20032;-69
2023/05/29 04:02:52;;;;;;;10.75;5.18;;;;;;;11.17;58.01;98626.16;5048488;28;20021;-69
2023/05/29 04:05:18;;;;;;;10.75;4.85;;;;;;;11.21;58.25;98632.66;5048642;28;20044;-69
2023/05/29 04:07:43;;;;;;;10.25;5.53;;;;;;;11.23;58.71;98622.19;5051578;28;20108;-69
2023/05/29 04:10:09;;;;;;;11.13;6.00;;;;;;;11.27;58.65;98625.97;5052238;28;20083;-69
2023/05/29 04:12:34;;;;;;;13.65;5.65;;;;;;;11.30;58.27;98621.84;5046217;28;20377;-69
2023/05/29 04:15:00;;;;;;;13.45;5.75;;;;;;;11.35;58.33;98630.00;5038719;28;20048;-69
2023/05/29 04:17:26;;;;;;;13.70;5.50;;;;;;;11.40;58.16;98640.91;5034381;28;20110;-69
2023/05/29 04:19:51;;;;;;;13.60;5.60;;;;;;;11.44;58.70;98633.69;5032130;28;20038;-69
2023/05/29 04:22:16;;;;;;;12.48;6.20;;;;;;;11.50;58.29;98639.94;5033227;28;20029;-69
2023/05/29 04:24:42;;;;;;;14.38;5.70;;;;;;;11.55;58.54;98636.28;5040254;28;20029;-69
2023/05/29 04:27:12;;;;;;;15.07;5.90;;;;;;;11.58;58.39;98639.28;5044531;28;20033;-69
2023/05/29 04:29:42;;;;;;;12.85;5.50;;;;;;;11.66;58.48;98645.19;5047503;28;20036;-69
2023/05/29 04:32:08;;;;;;;12.68;5.80;;;;;;;11.71;58.78;98643.19;5048042;28;20036;-69
2023/05/29 04:34:34;;;;;;;9.70;4.85;;;;;;;11.75;58.30;98652.47;5050210;28;20039;-69
2023/05/29 04:36:59;;;;;;;11.55;5.78;;;;;;;11.83;58.97;98650.97;5045901;28;20493;-69
2023/05/29 04:39:25;;;;;;;18.20;8.43;;;;;;;11.89;58.63;98654.44;5035956;28;20021;-70
2023/05/29 04:41:51;;;;;;;9.05;5.72;;;;;;;11.95;58.40;98658.72;5047371;28;20044;-69
2023/05/29 04:44:17;;;;;;;11.82;5.88;;;;;;;12.02;58.45;98650.94;5032094;28;20044;-69
2023/05/29 04:46:44;;;;;;;9.85;5.35;;;;;;;12.10;58.90;98656.88;5045434;28;20081;-69
2023/05/29 04:49:12;;;;;;;10.43;5.50;;;;;;;12.17;58.42;98655.38;5051605;28;20021;-69
2023/05/29 04:51:40;;;;;;;10.55;5.57;;;;;;;12.23;58.64;98658.03;5038602;28;20506;-69
2023/05/29 04:54:06;;;;;;;9.88;5.75;;;;;;;12.27;58.86;98654.34;5031998;28;20038;-69
2023/05/29 04:56:32;;;;;;;9.13;4.65;;;;;;;12.34;58.64;98656.72;5036437;28;20056;-69
2023/05/29 04:58:58;;;;;;;11.45;5.60;;;;;;;12.41;59.15;98664.56;5031258;28;20466;-69
2023/05/29 05:01:24;;;;;;;11.57;5.30;;;;;;;12.48;58.53;98670.50;5043607;28;20033;-69
2023/05/29 05:03:49;;;;;;;9.05;5.25;;;;;;;12.54;59.00;98658.28;5047890;28;20025;-69
2023/05/29 05:06:16;;;;;;;9.32;4.80;;;;;;;12.59;58.78;98660.13;5037190;28;20039;-69
2023/05/29 05:08:42;;;;;;;11.00;5.88;;;;;;;12.65;58.94;98667.97;5050347;28;20497;-70
2023/05/29 05:11:07;;;;;;;10.10;5.03;;;;;;;12.70;58.97;98653.31;5049199;28;20112;-69
2023/05/29 05:13:33;;;;;;;8.20;4.85;;;;;;;12.78;58.56;98660.84;5032661;28;20474;-69
2023/05/29 05:15:58;;;;;;;10.70;5.22;;;;;;;12.85;58.72;98665.94;5041715;28;20037;-69
2023/05/29 05:18:23;;;;;;;9.00;4.90;;;;;;;12.91;58.85;98663.88;5049864;28;20047;-69
2023/05/29 05:20:49;;;;;;;8.45;4.47;;;;;;;12.95;58.71;98662.97;5049986;28;20033;-69
2023/05/29 05:23:14;;;;;;;10.27;4.80;;;;;;;13.02;58.38;98662.56;5042866;28;20112;-69
2023/05/29 05:25:40;;;;;;;8.18;4.95;;;;;;;13.08;58.56;98664.09;5047760;28;20384;-69
2023/05/29 05:28:05;;;;;;;10.02;4.90;;;;;;;13.14;58.70;98663.97;5051315;28;20033;-69
2023/05/29 05:30:31;;;;;;;8.48;5.18;;;;;;;13.19;58.55;98663.88;5059462;28;20037;-69
2023/05/29 05:32:57;;;;;;;8.70;4.35;;;;;;;13.24;58.32;98663.75;5053692;28;20120;-69
2023/05/29 05:35:23;;;;;;;9.13;4.43;;;;;;;13.29;58.19;98660.88;5053611;28;20028;-68
2023/05/29 05:37:48;;;;;;;9.63;5.07;;;;;;;13.36;58.57;98664.03;5053834;28;20420;-69
2023/05/29 05:40:14;;;;;;;12.25;4.80;;;;;;;13.45;58.43;98671.59;5053512;28;20103;-69
2023/05/29 05:42:40;;;;;;;10.45;4.60;;;;;;;13.52;58.42;98678.28;5053515;28;20024;-69
2023/05/29 05:45:06;;;;;;;8.35;5.00;;;;;;;13.59;58.23;98666.88;5054522;28;20415;-70
2023/05/29 05:47:34;;;;;;;12.60;5.10;;;;;;;13.65;58.48;98668.34;5050992;28;20024;-69
2023/05/29 05:50:01;;;;;;;10.65;5.57;;;;;;;13.70;58.33;98672.94;5055031;28;20048;-69
2023/05/29 05:52:30;;;;;;;11.73;5.97;;;;;;;13.77;58.09;98680.78;5044973;28;20038;-69
2023/05/29 05:54:55;;;;;;;13.02;6.15;;;;;;;13.85;58.24;98674.53;5033245;28;20029;-70
2023/05/29 05:57:21;;;;;;;10.18;5.65;;;;;;;13.92;58.28;98674.91;5041448;28;20035;-69
2023/05/29 05:59:46;;;;;;;11.80;5.53;;;;;;;13.99;58.17;98677.22;5047283;28;20060;-69
2023/05/29 06:02:11;;;;;;;10.20;5.93;;;;;;;14.05;58.01;98681.47;5050694;28;20474;-68
2023/05/29 06:04:37;;;;;;;12.25;5.63;;;;;;;14.11;58.10;98679.41;5055403;28;20449;-69
2023/05/29 06:07:02;;;;;;;13.48;6.00;;;;;;;14.15;58.05;98674.88;5051045;28;20029;-69
2023/05/29 06:09:28;;;;;;;11.02;5.40;;;;;;;14.22;58.04;98680.78;5057941;28;20032;-69
2023/05/29 06:11:53;;;;;;;7.95;5.00;;;;;;;14.28;57.92;98689.72;5049311;28;20471;-69
2023/05/29 06:14:18;;;;;;;8.52;4.88;;;;;;;14.33;57.98;98684.06;5055485;28;20515;-68
2023/05/29 06:16:44;;;;;;;11.35;5.25;;;;;;;14.39;57.77;98680.06;5051303;28;20052;-69
2023/05/29 06:19:10;;;;;;;13.15;5.60;;;;;;;14.44;57.44;98682.69;5053207;28;20031;-68
2023/05/29 06:21:35;;;;;;;6.40;3.78;;;;;;;14.51;57.58;98692.47;5052502;28;20029;-68
2023/05/29 06:24:01;;;;;;;5.35;3.75;;;;;;;14.57;57.39;98696.72;5046566;28;20025;-66
2023/05/29 06:26:26;;;;;;;6.68;4.00;;;;;;;14.63;57.31;98706.50;5053374;28;20063;-68
2023/05/29 06:28:52;;;;;;;8.98;3.95;;;;;;;14.70;57.19;98706.84;5050807;28;20370;-68
2023/05/29 06:31:18;;;;;;;6.65;3.42;;;;;;;14.76;57.38;98704.78;5047496;28;20111;-69
2023/05/29 06:33:44;;;;;;;8.27;4.20;;;;;;;14.84;57.39;98708.72;5050830;28;20104;-68
2023/05/29 06:36:10;;;;;;;8.60;3.97;;;;;;;14.91;57.08;98703.56;5052380;28;20039;-68
2023/05/29 06:38:36;;;;;;;7.43;4.07;;;;;;;14.98;56.87;98703.91;5047645;28;20020;-68
2023/05/29 06:41:02;;;;;;;5.28;3.58;;;;;;;15.04;56.98;98704.56;5052627;28;20044;-68
2023/05/29 06:43:28;;;;;;;8.80;4.18;;;;;;;15.09;56.74;98707.19;5050089;28;20159;-68
2023/05/29 06:45:54;;;;;;;7.50;3.60;;;;;;;15.19;56.59;98708.81;5051477;28;20108;-69
2023/05/29 06:48:19;;;;;;;6.47;4.03;;;;;;;15.28;56.99;98708.88;5050691;28;20487;-69
2023/05/29 06:50:45;;;;;;;7.90;4.25;;;;;;;15.37;56.96;98711.66;5056071;28;20021;-68
2023/05/29 06:53:10;;;;;;;7.45;4.22;;;;;;;15.43;56.46;98702.06;5052120;28;20477;-68
2023/05/29 06:55:36;;;;;;;7.90;4.07;;;;;;;15.49;56.49;98709.03;5052669;28;20174;-67
2023/05/29 06:58:01;;;;;;;6.40;3.85;;;;;;;15.56;56.71;98711.34;5050787;28;20488;-68
2023/05/29 07:00:28;;;;;;;7.43;4.32;;;;;;;15.62;56.34;98712.81;5049144;28;20488;-68
2023/05/29 07:02:53;;;;;;;10.77;4.60;;;;;;;15.69;56.45;98720.63;5048596;28;20029;-68
2023/05/29 07:05:18;;;;;;;8.02;4.70;;;;;;;15.73;55.98;98722.41;5053207;28;20028;-68
2023/05/29 07:07:44;;;;;;;8.20;4.60;;;;;;;15.77;56.12;98717.84;5047425;28;20072;-69
2023/05/29 07:10:10;;;;;;;8.60;4.28;;;;;;;15.87;56.01;98724.25;5050541;28;20404;-71
2023/05/29 07:12:35;;;;;;;8.10;4.35;;;;;;;15.95;55.98;98728.13;5048634;28;20133;-68
2023/05/29 07:15:00;;;;;;;12.55;5.35;;;;;;;15.99;56.01;98716.13;5048104;28;20037;-67
2023/05/29 07:17:26;;;;;;;9.45;4.63;;;;;;;16.05;55.58;98717.59;5051542;28;20496;-67
2023/05/29 07:19:51;;;;;;;8.65;4.70;;;;;;;16.12;55.75;98719.03;5049037;28;20404;-67
2023/05/29 07:22:17;;;;;;;9.50;4.75;;;;;;;16.19;55.74;98719.34;5049438;28;20029;-67
2023/05/29 07:24:42;;;;;;;7.25;4.70;;;;;;;16.28;55.89;98719.34;5052233;28;20035;-67
2023/05/29 07:27:08;;;;;;;10.60;5.00;;;;;;;16.34;55.59;98716.06;5046566;28;20075;-69
2023/05/29 07:29:33;;;;;;;11.55;5.60;;;;;;;16.41;55.38;98715.56;5052473;28;20440;-68
2023/05/29 07:31:58;;;;;;;8.90;5.47;;;;;;;16.48;55.46;98720.63;5047003;28;20135;-68
2023/05/29 07:34:24;;;;;;;8.65;4.60;;;;;;;16.52;55.23;98722.38;5050742;28;20462;-69
2023/05/29 07:37:02;;;;;;;8.35;4.53;;;;;;;16.60;55.45;98729.03;5052269;28;20104;-69
2023/05/29 07:39:28;;;;;;;7.38;4.05;;;;;;;16.69;54.94;98725.44;5054464;28;20051;-68
2023/05/29 07:41:54;;;;;;;11.35;4.20;;;;;;;16.75;54.74;98722.13;5051699;28;20533;-68
2023/05/29 07:44:19;;;;;;;7.40;4.30;;;;;;;16.83;54.69;98723.28;5051927;28;20029;-68
2023/05/29 07:46:45;;;;;;;5.45;3.88;;;;;;;16.91;54.85;98719.63;5047667;28;20469;-68
2023/05/29 07:49:11;;;;;;;8.65;4.15;;;;;;;17.00;54.63;98721.59;5054835;28;20020;-67
2023/05/29 07:51:36;;;;;;;7.82;3.88;;;;;;;17.06;54.23;98723.03;5051325;28;20469;-68
2023/05/29 07:54:02;;;;;;;8.88;3.83;;;;;;;17.12;53.83;98724.47;5050751;28;20024;-68
2023/05/29 07:56:27;;;;;;;10.20;4.45;;;;;;;17.20;53.82;98720.84;5046253;28;20055;-67
2023/05/29 07:58:54;;;;;;;11.85;4.53;;;;;;;17.28;53.25;98727.50;5051759;28;20060;-68
2023/05/29 08:01:21;;;;;;;9.65;3.85;;;;;;;17.35;53.62;98725.00;5050776;28;20100;-67
2023/05/29 08:03:47;;;;;;;8.30;4.00;;;;;;;17.46;53.50;98730.16;5052142;28;20513;-67
2023/05/29 08:06:12;;;;;;;6.63;3.63;;;;;;;17.53;53.30;98722.94;5050546;28;20115;-67
2023/05/29 08:08:38;;;;;;;10.50;5.32;;;;;;;17.63;53.19;98723.69;5049028;28;20025;-66
2023/05/29 08:11:03;;;;;;;15.65;4.25;;;;;;;17.72;52.64;98732.78;5047685;28;20065;-66
2023/05/29 08:13:30;;;;;;;5.55;3.53;;;;;;;17.79;52.20;98721.94;5046509;28;20103;-67
2023/05/29 08:15:55;;;;;;;7.35;3.72;;;;;;;17.86;52.12;98729.72;5052375;28;20105;-67
2023/05/29 08:18:21;;;;;;;8.13;3.70;;;;;;;17.94;51.42;98722.47;5051173;28;20525;-67
2023/05/29 08:20:47;;;;;;;7.53;3.50;;;;;;;18.00;51.54;98726.72;5050619;28;20032;-67
2023/05/29 08:23:12;;;;;;;8.05;3.20;;;;;;;18.09;51.68;98730.22;5050892;28;20112;-66
2023/05/29 08:25:38;;;;;;;7.65;3.15;;;;;;;18.19;51.36;98737.31;5051429;28;20028;-67
2023/05/29 08:28:03;;;;;;;6.97;2.97;;;;;;;18.29;51.35;98734.13;5051343;28;20036;-67
2023/05/29 08:30:28;;;;;;;8.32;3.00;;;;;;;18.38;50.94;98728.47;5053548;28;20362;-66
2023/05/29 08:32:54;;;;;;;10.40;3.08;;;;;;;18.49;50.77;98722.50;5051781;28;20032;-67
2023/05/29 08:35:19;;;;;;;10.45;3.15;;;;;;;18.58;50.79;98725.97;5049827;28;20517;-66
2023/05/29 08:37:45;;;;;;;8.13;3.10;;;;;;;18.69;50.49;98729.94;5051473;28;20033;-66
2023/05/29 08:40:12;;;;;;;7.25;3.05;;;;;;;18.83;50.57;98726.03;5051362;28;20037;-67
2023/05/29 08:42:46;;;;;;;6.10;3.42;;;;;;;18.93;50.21;98733.94;5051302;28;20041;-66
2023/05/29 08:45:14;;;;;;;6.13;2.72;;;;;;;18.99;49.72;98728.97;5052615;28;20389;-67
2023/05/29 08:47:40;;;;;;;7.82;2.40;;;;;;;19.02;49.15;98720.75;5051314;28;20389;-67
2023/05/29 08:50:07;;;;;;;5.72;2.58;;;;;;;19.04;48.94;98721.22;5050580;28;20025;-66
2023/05/29 08:52:37;;;;;;;5.22;2.50;;;;;;;19.14;49.09;98722.75;5050325;28;20063;-67
2023/05/29 08:55:03;;;;;;;6.82;2.95;;;;;;;19.21;48.89;98722.16;5053844;28;20041;-66
2023/05/29 08:57:30;;;;;;;4.95;2.40;;;;;;;19.28;48.49;98719.63;5049129;28;20030;-67
2023/05/29 08:59:56;;;;;;;6.30;2.80;;;;;;;19.38;48.53;98723.06;5054599;28;20025;-67
2023/05/29 09:02:21;;;;;;;6.75;2.35;;;;;;;19.44;48.24;98719.72;5052238;28;20435;-67
2023/05/29 09:04:52;;;;;;;6.57;2.40;;;;;;;19.52;48.23;98720.75;5054714;28;20059;-68
2023/05/29 09:07:19;;;;;;;5.53;2.75;;;;;;;19.60;48.04;98719.81;5052713;28;20017;-69
2023/05/29 09:13:05;;;;;;;5.68;2.53;;;;;;;19.75;47.83;98720.25;5055959;28;20557;-68
2023/05/29 09:15:31;;;;;;;4.82;2.45;;;;;;;19.81;47.42;98715.22;5054577;28;20115;-68
2023/05/29 09:17:58;;;;;;;5.82;2.50;;;;;;;19.87;47.17;98713.84;5056350;28;20485;-70
2023/05/29 09:20:24;;;;;;;7.53;2.88;;;;;;;19.91;46.96;98714.78;5054202;28;20051;-68
2023/05/29 09:23:00;;;;;;;5.70;2.20;;;;;;;19.98;47.14;98708.59;5053232;28;20033;-68
2023/05/29 09:25:32;;;;;;;4.25;1.92;;;;;;;20.04;46.70;98713.56;5054199;28;20516;-70
2023/05/29 09:28:02;;;;;;;5.15;2.42;;;;;;;20.09;46.22;98712.50;5049495;28;20025;-67
2023/05/29 09:30:37;;;;;;;5.18;2.20;;;;;;;20.15;45.60;98722.25;5037576;28;20043;-69
2023/05/29 09:33:05;;;;;;;5.70;2.05;;;;;;;20.15;44.53;98713.06;5043975;28;20036;-69
2023/05/29 09:35:39;;;;;;;5.22;2.30;;;;;;;20.14;44.65;98717.84;5044521;28;20053;-70
2023/05/29 09:38:06;;;;;;;4.70;2.10;;;;;;;20.12;43.82;98717.38;5035442;28;20053;-71
2023/05/29 09:40:38;;;;;;;5.65;3.15;;;;;;;20.12;43.30;98725.72;5034524;28;20060;-71
2023/05/29 09:43:11;;;;;;;4.95;2.15;;;;;;;20.19;43.98;98719.53;5035213;28;20092;-70
2023/05/29 09:45:41;;;;;;;7.80;3.00;;;;;;;20.26;44.34;98716.13;5040321;28;20131;-70
2023/05/29 09:48:16;;;;;;;4.97;2.22;;;;;;;20.32;43.93;98717.50;5055466;28;20037;-69
2023/05/29 09:50:45;;;;;;;4.80;2.38;;;;;;;20.35;43.63;98705.66;5055503;28;20025;-69
2023/05/29 09:53:24;;;;;;;5.80;2.47;;;;;;;20.37;43.36;98706.94;5055562;28;20040;-70
2023/05/29 09:55:51;;;;;;;8.10;2.17;;;;;;;20.40;42.91;98715.72;5055276;28;20087;-71
2023/05/29 09:58:20;;;;;;;4.10;2.38;;;;;;;20.45;42.71;98721.03;5055324;28;20025;-68
2023/05/29 10:00:47;;;;;;;4.70;2.47;;;;;;;20.47;41.57;98710.34;5055369;28;20032;-70
2023/05/29 10:03:13;;;;;;;2.90;1.90;;;;;;;20.48;41.72;98717.53;5055460;28;20027;-69
2023/05/29 10:05:39;;;;;;;5.28;2.10;;;;;;;20.52;41.83;98710.09;5055146;28;20036;-68
2023/05/29 10:08:09;;;;;;;4.97;2.33;;;;;;;20.53;41.11;98715.31;5054249;28;20067;-69
2023/05/29 10:10:38;;;;;;;5.57;2.72;;;;;;;20.56;41.14;98708.22;5043763;28;20120;-68
2023/05/29 10:13:06;;;;;;;5.30;2.33;;;;;;;20.60;41.59;98716.66;5048409;28;20386;-68
2023/05/29 10:15:33;;;;;;;5.55;2.35;;;;;;;20.65;41.43;98714.44;5040946;28;20033;-67
2023/05/29 10:18:12;;;;;;;4.43;2.35;;;;;;;20.70;41.46;98720.91;5035380;28;20076;-69
2023/05/29 10:20:38;;;;;;;7.32;2.50;;;;;;;20.74;41.28;98717.03;5051578;28;20029;-68
2023/05/29 10:23:06;;;;;;;4.88;1.95;;;;;;;20.79;41.38;98710.41;5054951;28;20084;-70
2023/05/29 10:25:33;;;;;;;4.65;2.15;;;;;;;20.87;41.29;98715.00;5054688;28;20465;-70
2023/05/29 10:27:59;;;;;;;5.32;2.30;;;;;;;20.94;41.32;98717.19;5053505;28;20042;-68
2023/05/29 10:30:35;;;;;;;3.45;2.20;;;;;;;20.96;40.94;98714.84;5045773;28;20053;-67
2023/05/29 10:33:28;;;;;;;5.32;2.10;;;;;;;20.98;40.18;98715.28;5035077;28;20522;-68
2023/05/29 10:36:15;;;;;;;9.07;2.17;;;;;;;21.03;40.54;98715.00;5036750;28;20037;-67
2023/05/29 10:38:45;;;;;;;5.55;2.00;;;;;;;21.07;38.17;98706.75;5033423;28;20033;-68
2023/05/29 10:41:28;;;;;;;4.78;2.55;;;;;;;21.08;39.83;98709.16;5037811;28;20045;-69
2023/05/29 10:43:55;;;;;;;4.18;1.92;;;;;;;21.13;39.13;98705.31;5042052;28;20029;-68
2023/05/29 10:46:21;;;;;;;3.10;2.00;;;;;;;21.19;39.66;98708.63;5061304;28;20029;-68
2023/05/29 10:48:49;;;;;;;4.95;2.00;;;;;;;21.27;39.58;98704.81;5053988;28;20037;-68
2023/05/29 10:51:29;;;;;;;4.25;1.77;;;;;;;21.32;38.96;98701.75;5060298;28;20033;-67
2023/05/29 10:53:54;;;;;;;6.07;2.20;;;;;;;21.34;38.71;98698.59;5046923;28;20051;-69
2023/05/29 10:56:28;;;;;;;3.08;2.10;;;;;;;21.39;38.90;98698.31;5051732;28;20017;-70
2023/05/29 10:58:57;;;;;;;2.70;1.80;;;;;;;21.42;38.59;98700.38;5051295;28;20436;-70
2023/05/29 11:01:27;;;;;;;5.15;1.80;;;;;;;21.47;38.96;98694.53;5049423;28;20120;-68
2023/05/29 11:04:15;;;;;;;5.15;1.77;;;;;;;21.53;38.49;98695.88;5050506;28;20107;-68
2023/05/29 11:06:40;;;;;;;3.70;1.83;;;;;;;21.63;39.29;98693.69;5060165;28;20141;-68
2023/05/29 11:09:08;;;;;;;4.32;1.90;;;;;;;21.74;39.62;98691.16;5053167;28;20021;-68
2023/05/29 11:11:38;;;;;;;3.05;2.05;;;;;;;21.84;38.89;98696.13;5053717;28;20064;-68
2023/05/29 11:14:05;;;;;;;3.92;1.92;;;;;;;21.85;38.41;98693.00;5054493;28;20127;-69
2023/05/29 11:16:32;;;;;;;4.57;1.90;;;;;;;21.86;38.07;98693.78;5054870;28;20028;-70
2023/05/29 11:18:58;;;;;;;4.57;1.98;;;;;;;21.86;38.07;98686.22;5056163;28;20128;-71
2023/05/29 11:21:42;;;;;;;2.88;1.83;;;;;;;21.90;38.21;98686.28;5057890;28;20032;-70
2023/05/29 11:24:07;;;;;;;5.20;2.05;;;;;;;21.93;38.21;98679.19;5053262;28;20494;-71
2023/05/29 11:26:36;;;;;;;5.03;1.77;;;;;;;21.98;38.27;98673.31;5052925;28;20113;-71
2023/05/29 11:29:06;;;;;;;3.67;1.92;;;;;;;22.03;38.36;98683.38;5052328;28;20036;-72
2023/05/29 11:31:34;;;;;;;4.10;1.88;;;;;;;22.07;37.96;98682.25;5052140;28;20035;-69
2023/05/29 11:34:02;;;;;;;4.68;1.77;;;;;;;22.13;37.42;98691.16;5053503;28;20025;-71